Hollywood, SC

9:21 AM EDT on June 24, 2017 (GMT -0400)
SCDNR, Ft Johnson, James Island | | Change Station
Active Advisory: Coastal Hazard Statement Active Notice: Coastal Hazard Statement

Elev 50 ft 32.75 °N, 79.90 °W | Updated 36 seconds ago

Partly Cloudy
Partly Cloudy
84.3 °F
Feels Like 84.3 °F
N
6.0
Wind Variable Wind from SSW
Gusts 8.0 mph

Today
High -- | Low -- °F
--% Chance of Precip.
Yesterday
High -- | Low -- °F
Precip. -- in
Pressure 30.00 in
Visibility 10.0 miles
Clouds Overcast 100 ft
Dew Point -26.6 °F
Humidity 1%
Rainfall 0.00 in
Snow Depth Not available.
6:14 AM 8:32 PM
New Moon, 0% visible
METAR KJZI 241215Z AUTO 21011KT 10SM OVC001 29/24 A3000 RMK AO2
Pressure 30.00 in
Visibility 10.0 miles
Clouds Overcast 100 ft
Dew Point -26.6 °F
Humidity 1%
Rainfall 0.00 in
Snow Depth Not available.
6:14 AM 8:32 PM
New Moon, 0% visible
METAR KJZI 241215Z AUTO 21011KT 10SM OVC001 29/24 A3000 RMK AO2

Get Your Daily Forecast Email!

Thanks for signing up!

Be on the lookout for a verification email in your inbox.

You'll start receiving severe weather alerts in your inbox..

×

10-Day Weather Forecast

Almanac

Astronomy

Jun. 24, 2017 Rise Set
Actual Time
Civil Twilight
Nautical Twilight
Astronomical Twilight
Moon
Length of Visible Light
Length of Day
Tomorrow will be .
, % of the Moon is Illuminated

Today's Extremes

State Highs State Lows

Community

WunderPhotos

Category 6

Welcome to Category 6. This is the collective home for Weather Underground's featured writeups by Dr. Jeff Masters (right), Bob Henson (left), Chris Burt, and other regular contributors.

Nearby

Air Quality

  Air Quality AQ Index Pollutant
Not available.

Snow Depth

Station Depth Elevation

Earthquake Activity

City Distance Mag. Time & Date
Minimum magnitude displayed is 2.5.

Coastal Water Temperatures

Place Temperature

Stations

Nearby Weather Stations

Station Location Temp. Windchill Dew Point Humidity Wind Precip. Elev Updated Type
                   

Watches & Warnings

Coastal Hazard Statement
Issued: 6:25 AM EDT Jun. 24, 2017 – National Weather Service

... High rip current risk remains in effect through this evening...

* rip currents... wind and wave conditions support the
development of very strong rip currents. These rip currents
will be life threatening to anyone who enters the surf.

Precautionary/preparedness actions...

No one should enter the surf due to life threatening rip
currents.